sensor_id;sensor_type;location;lat;lon;timestamp;temperature;humidity
1476;DHT22;730;48.870;12.542;2023-09-30T00:01:22;18.70;1.00
1476;DHT22;730;48.870;12.542;2023-09-30T00:03:48;18.60;1.00
1476;DHT22;730;48.870;12.542;2023-09-30T00:06:14;18.60;1.00
1476;DHT22;730;48.870;12.542;2023-09-30T00:08:40;18.60;1.00
1476;DHT22;730;48.870;12.542;2023-09-30T00:11:08;18.50;1.00
1476;DHT22;730;48.870;12.542;2023-09-30T00:13:35;18.40;1.00
1476;DHT22;730;48.870;12.542;2023-09-30T00:16:01;18.40;1.00
1476;DHT22;730;48.870;12.542;2023-09-30T00:18:27;18.40;1.00
1476;DHT22;730;48.870;12.542;2023-09-30T00:20:53;18.30;1.00
1476;DHT22;730;48.870;12.542;2023-09-30T00:23:19;18.30;1.00
1476;DHT22;730;48.870;12.542;2023-09-30T00:25:48;18.30;1.00
1476;DHT22;730;48.870;12.542;2023-09-30T00:28:15;18.30;1.00
1476;DHT22;730;48.870;12.542;2023-09-30T00:30:41;18.30;1.00
1476;DHT22;730;48.870;12.542;2023-09-30T00:33:15;18.20;1.00
1476;DHT22;730;48.870;12.542;2023-09-30T00:35:41;18.20;1.00
1476;DHT22;730;48.870;12.542;2023-09-30T00:38:07;18.20;1.00
1476;DHT22;730;48.870;12.542;2023-09-30T00:40:34;18.20;1.00
1476;DHT22;730;48.870;12.542;2023-09-30T00:43:01;18.10;1.00
1476;DHT22;730;48.870;12.542;2023-09-30T00:45:28;18.10;1.00
1476;DHT22;730;48.870;12.542;2023-09-30T00:47:54;18.00;1.00
1476;DHT22;730;48.870;12.542;2023-09-30T00:50:21;18.00;1.00
1476;DHT22;730;48.870;12.542;2023-09-30T00:52:48;17.90;1.00
1476;DHT22;730;48.870;12.542;2023-09-30T00:55:15;17.90;1.00
1476;DHT22;730;48.870;12.542;2023-09-30T00:57:42;17.90;1.00
1476;DHT22;730;48.870;12.542;2023-09-30T01:00:11;17.90;1.00
1476;DHT22;730;48.870;12.542;2023-09-30T01:02:41;17.80;1.00
1476;DHT22;730;48.870;12.542;2023-09-30T01:05:08;17.70;1.00
1476;DHT22;730;48.870;12.542;2023-09-30T01:07:34;17.70;1.00
1476;DHT22;730;48.870;12.542;2023-09-30T01:10:01;17.70;1.00
1476;DHT22;730;48.870;12.542;2023-09-30T01:12:28;17.70;1.00
1476;DHT22;730;48.870;12.542;2023-09-30T01:14:58;17.60;1.00
1476;DHT22;730;48.870;12.542;2023-09-30T01:17:26;17.30;1.00
1476;DHT22;730;48.870;12.542;2023-09-30T01:19:52;17.30;1.00
1476;DHT22;730;48.870;12.542;2023-09-30T01:22:18;17.20;1.00
1476;DHT22;730;48.870;12.542;2023-09-30T01:24:44;17.20;1.00
1476;DHT22;730;48.870;12.542;2023-09-30T01:27:13;17.20;1.00
1476;DHT22;730;48.870;12.542;2023-09-30T01:29:39;17.20;1.00
1476;DHT22;730;48.870;12.542;2023-09-30T01:32:08;17.20;1.00
1476;DHT22;730;48.870;12.542;2023-09-30T01:34:36;17.10;1.00
1476;DHT22;730;48.870;12.542;2023-09-30T01:37:02;16.90;1.00
1476;DHT22;730;48.870;12.542;2023-09-30T01:39:28;16.90;1.00
1476;DHT22;730;48.870;12.542;2023-09-30T01:41:56;16.70;1.00
1476;DHT22;730;48.870;12.542;2023-09-30T01:44:22;16.70;1.00
1476;DHT22;730;48.870;12.542;2023-09-30T01:46:49;16.60;1.00
1476;DHT22;730;48.870;12.542;2023-09-30T01:49:15;16.50;1.00
1476;DHT22;730;48.870;12.542;2023-09-30T01:51:41;16.50;1.00
1476;DHT22;730;48.870;12.542;2023-09-30T01:54:07;16.50;1.00
1476;DHT22;730;48.870;12.542;2023-09-30T01:56:33;16.60;1.00
1476;DHT22;730;48.870;12.542;2023-09-30T01:59:00;16.50;1.00
1476;DHT22;730;48.870;12.542;2023-09-30T02:01:26;16.40;1.00
1476;DHT22;730;48.870;12.542;2023-09-30T02:03:52;16.40;1.00
1476;DHT22;730;48.870;12.542;2023-09-30T02:06:18;16.50;1.00
1476;DHT22;730;48.870;12.542;2023-09-30T02:08:44;16.60;1.00
1476;DHT22;730;48.870;12.542;2023-09-30T02:11:10;16.70;1.00
1476;DHT22;730;48.870;12.542;2023-09-30T02:13:40;16.70;1.00
1476;DHT22;730;48.870;12.542;2023-09-30T02:16:14;16.80;1.00
1476;DHT22;730;48.870;12.542;2023-09-30T02:18:43;16.80;1.00
1476;DHT22;730;48.870;12.542;2023-09-30T02:21:10;16.80;1.00
1476;DHT22;730;48.870;12.542;2023-09-30T02:23:36;16.80;1.00
1476;DHT22;730;48.870;12.542;2023-09-30T02:26:03;16.80;1.00
1476;DHT22;730;48.870;12.542;2023-09-30T02:28:29;16.80;1.00
1476;DHT22;730;48.870;12.542;2023-09-30T02:30:59;16.80;1.00
1476;DHT22;730;48.870;12.542;2023-09-30T02:33:26;16.70;1.00
1476;DHT22;730;48.870;12.542;2023-09-30T02:35:53;16.70;1.00
1476;DHT22;730;48.870;12.542;2023-09-30T02:38:19;16.70;1.00
1476;DHT22;730;48.870;12.542;2023-09-30T02:40:47;16.70;1.00
1476;DHT22;730;48.870;12.542;2023-09-30T02:43:14;16.70;1.00
1476;DHT22;730;48.870;12.542;2023-09-30T02:45:40;16.60;1.00
1476;DHT22;730;48.870;12.542;2023-09-30T02:48:06;16.60;1.00
1476;DHT22;730;48.870;12.542;2023-09-30T02:50:32;16.60;1.00
1476;DHT22;730;48.870;12.542;2023-09-30T02:52:58;16.60;1.00
1476;DHT22;730;48.870;12.542;2023-09-30T02:55:24;16.60;1.00
1476;DHT22;730;48.870;12.542;2023-09-30T02:57:50;16.60;1.00
1476;DHT22;730;48.870;12.542;2023-09-30T03:00:16;16.50;1.00
1476;DHT22;730;48.870;12.542;2023-09-30T03:02:51;16.50;1.00
1476;DHT22;730;48.870;12.542;2023-09-30T03:05:18;16.50;1.00
1476;DHT22;730;48.870;12.542;2023-09-30T03:07:45;16.50;1.00
1476;DHT22;730;48.870;12.542;2023-09-30T03:10:11;16.40;1.00
1476;DHT22;730;48.870;12.542;2023-09-30T03:12:39;16.40;1.00
1476;DHT22;730;48.870;12.542;2023-09-30T03:15:06;16.40;1.00
1476;DHT22;730;48.870;12.542;2023-09-30T03:17:32;16.40;1.00
1476;DHT22;730;48.870;12.542;2023-09-30T03:20:00;16.40;1.00
1476;DHT22;730;48.870;12.542;2023-09-30T03:22:26;16.40;1.00
1476;DHT22;730;48.870;12.542;2023-09-30T03:24:56;16.30;1.00
1476;DHT22;730;48.870;12.542;2023-09-30T03:27:23;16.30;1.00
1476;DHT22;730;48.870;12.542;2023-09-30T03:29:49;16.30;1.00
1476;DHT22;730;48.870;12.542;2023-09-30T03:32:15;16.30;1.00
1476;DHT22;730;48.870;12.542;2023-09-30T03:34:41;16.30;1.00
1476;DHT22;730;48.870;12.542;2023-09-30T03:37:10;16.30;1.00
1476;DHT22;730;48.870;12.542;2023-09-30T03:39:37;16.30;1.00
1476;DHT22;730;48.870;12.542;2023-09-30T03:42:03;16.30;1.00
1476;DHT22;730;48.870;12.542;2023-09-30T03:44:30;16.40;1.00
1476;DHT22;730;48.870;12.542;2023-09-30T03:46:56;16.40;1.00
1476;DHT22;730;48.870;12.542;2023-09-30T03:49:25;16.40;1.00
1476;DHT22;730;48.870;12.542;2023-09-30T03:51:52;16.40;1.00
1476;DHT22;730;48.870;12.542;2023-09-30T03:54:19;16.40;1.00
1476;DHT22;730;48.870;12.542;2023-09-30T03:56:46;16.50;1.00
1476;DHT22;730;48.870;12.542;2023-09-30T03:59:13;16.50;1.00
1476;DHT22;730;48.870;12.542;2023-09-30T04:01:39;16.50;1.00
1476;DHT22;730;48.870;12.542;2023-09-30T04:04:07;16.50;1.00
1476;DHT22;730;48.870;12.542;2023-09-30T04:06:34;16.60;1.00
1476;DHT22;730;48.870;12.542;2023-09-30T04:09:13;16.50;1.00
1476;DHT22;730;48.870;12.542;2023-09-30T04:11:39;16.60;1.00
1476;DHT22;730;48.870;12.542;2023-09-30T04:14:06;16.60;1.00
1476;DHT22;730;48.870;12.542;2023-09-30T04:16:33;16.60;1.00
1476;DHT22;730;48.870;12.542;2023-09-30T04:19:00;16.70;1.00
1476;DHT22;730;48.870;12.542;2023-09-30T04:21:26;16.70;1.00
1476;DHT22;730;48.870;12.542;2023-09-30T04:23:54;16.70;1.00
1476;DHT22;730;48.870;12.542;2023-09-30T04:26:21;16.80;1.00
1476;DHT22;730;48.870;12.542;2023-09-30T04:28:47;16.80;1.00
1476;DHT22;730;48.870;12.542;2023-09-30T04:31:13;16.80;1.00
1476;DHT22;730;48.870;12.542;2023-09-30T04:33:45;16.90;1.00
1476;DHT22;730;48.870;12.542;2023-09-30T04:36:11;16.90;1.00
1476;DHT22;730;48.870;12.542;2023-09-30T04:38:39;16.90;1.00
1476;DHT22;730;48.870;12.542;2023-09-30T04:41:05;16.90;1.00
1476;DHT22;730;48.870;12.542;2023-09-30T04:43:34;16.90;1.00
1476;DHT22;730;48.870;12.542;2023-09-30T04:46:00;16.90;1.00
1476;DHT22;730;48.870;12.542;2023-09-30T04:48:28;17.00;1.00
1476;DHT22;730;48.870;12.542;2023-09-30T04:50:54;17.00;1.00
1476;DHT22;730;48.870;12.542;2023-09-30T04:53:21;17.00;1.00
1476;DHT22;730;48.870;12.542;2023-09-30T04:55:49;17.00;1.00
1476;DHT22;730;48.870;12.542;2023-09-30T04:58:16;17.00;1.00
1476;DHT22;730;48.870;12.542;2023-09-30T05:00:43;17.00;1.00
1476;DHT22;730;48.870;12.542;2023-09-30T05:03:09;17.00;1.00
1476;DHT22;730;48.870;12.542;2023-09-30T05:05:35;16.90;1.00
1476;DHT22;730;48.870;12.542;2023-09-30T05:08:03;16.90;1.00
1476;DHT22;730;48.870;12.542;2023-09-30T05:10:29;16.80;1.00
1476;DHT22;730;48.870;12.542;2023-09-30T05:12:56;16.90;1.00
1476;DHT22;730;48.870;12.542;2023-09-30T05:15:22;16.70;1.00
1476;DHT22;730;48.870;12.542;2023-09-30T05:17:48;16.50;1.00
1476;DHT22;730;48.870;12.542;2023-09-30T05:20:15;16.40;1.00
1476;DHT22;730;48.870;12.542;2023-09-30T05:22:49;16.30;1.00
1476;DHT22;730;48.870;12.542;2023-09-30T05:25:15;16.40;1.00
1476;DHT22;730;48.870;12.542;2023-09-30T05:27:42;16.40;1.00
1476;DHT22;730;48.870;12.542;2023-09-30T05:30:09;16.50;1.00
1476;DHT22;730;48.870;12.542;2023-09-30T05:32:37;16.60;1.00
1476;DHT22;730;48.870;12.542;2023-09-30T05:35:05;16.60;1.00
1476;DHT22;730;48.870;12.542;2023-09-30T05:37:31;16.70;1.00
1476;DHT22;730;48.870;12.542;2023-09-30T05:39:58;16.80;1.00
1476;DHT22;730;48.870;12.542;2023-09-30T05:42:24;16.80;1.00
1476;DHT22;730;48.870;12.542;2023-09-30T05:44:50;16.80;1.00
1476;DHT22;730;48.870;12.542;2023-09-30T05:47:17;16.90;1.00
1476;DHT22;730;48.870;12.542;2023-09-30T05:49:43;17.00;1.00
1476;DHT22;730;48.870;12.542;2023-09-30T05:52:09;17.00;1.00
1476;DHT22;730;48.870;12.542;2023-09-30T05:54:35;17.10;1.00
1476;DHT22;730;48.870;12.542;2023-09-30T05:57:01;16.90;1.00
1476;DHT22;730;48.870;12.542;2023-09-30T05:59:28;16.90;1.00
1476;DHT22;730;48.870;12.542;2023-09-30T06:01:54;16.90;1.00
1476;DHT22;730;48.870;12.542;2023-09-30T06:04:21;17.00;1.00
1476;DHT22;730;48.870;12.542;2023-09-30T06:06:47;17.00;1.00
1476;DHT22;730;48.870;12.542;2023-09-30T06:09:13;17.00;1.00
1476;DHT22;730;48.870;12.542;2023-09-30T06:11:39;16.90;1.00
1476;DHT22;730;48.870;12.542;2023-09-30T06:14:07;16.80;1.00
1476;DHT22;730;48.870;12.542;2023-09-30T06:16:34;16.90;1.00
1476;DHT22;730;48.870;12.542;2023-09-30T06:19:04;16.90;1.00
1476;DHT22;730;48.870;12.542;2023-09-30T06:21:32;17.00;1.00
1476;DHT22;730;48.870;12.542;2023-09-30T06:24:00;17.10;1.00
1476;DHT22;730;48.870;12.542;2023-09-30T06:26:26;17.10;1.00
1476;DHT22;730;48.870;12.542;2023-09-30T06:28:54;17.20;1.00
1476;DHT22;730;48.870;12.542;2023-09-30T06:31:21;17.30;1.00
1476;DHT22;730;48.870;12.542;2023-09-30T06:33:48;17.30;1.00
1476;DHT22;730;48.870;12.542;2023-09-30T06:36:14;17.40;1.00
1476;DHT22;730;48.870;12.542;2023-09-30T06:38:41;17.50;1.00
1476;DHT22;730;48.870;12.542;2023-09-30T06:41:08;17.50;1.00
1476;DHT22;730;48.870;12.542;2023-09-30T06:43:34;17.60;1.00
1476;DHT22;730;48.870;12.542;2023-09-30T06:46:07;17.70;1.00
1476;DHT22;730;48.870;12.542;2023-09-30T06:48:36;17.70;1.00
1476;DHT22;730;48.870;12.542;2023-09-30T06:51:03;17.70;1.00
1476;DHT22;730;48.870;12.542;2023-09-30T06:53:29;17.70;1.00
1476;DHT22;730;48.870;12.542;2023-09-30T06:55:55;17.70;1.00
1476;DHT22;730;48.870;12.542;2023-09-30T06:58:21;17.70;1.00
1476;DHT22;730;48.870;12.542;2023-09-30T07:00:51;17.70;1.00
1476;DHT22;730;48.870;12.542;2023-09-30T07:03:18;17.70;1.00
1476;DHT22;730;48.870;12.542;2023-09-30T07:05:45;17.70;1.00
1476;DHT22;730;48.870;12.542;2023-09-30T07:08:16;17.60;1.00
1476;DHT22;730;48.870;12.542;2023-09-30T07:10:44;17.70;1.00
1476;DHT22;730;48.870;12.542;2023-09-30T07:13:12;17.60;1.00
1476;DHT22;730;48.870;12.542;2023-09-30T07:15:38;17.70;1.00
1476;DHT22;730;48.870;12.542;2023-09-30T07:18:04;17.70;1.00
1476;DHT22;730;48.870;12.542;2023-09-30T07:20:30;17.80;1.00
1476;DHT22;730;48.870;12.542;2023-09-30T07:22:59;17.80;1.00
1476;DHT22;730;48.870;12.542;2023-09-30T07:25:27;17.80;1.00
1476;DHT22;730;48.870;12.542;2023-09-30T07:27:53;17.80;1.00
1476;DHT22;730;48.870;12.542;2023-09-30T07:30:19;17.80;1.00
1476;DHT22;730;48.870;12.542;2023-09-30T07:32:46;17.80;1.00
1476;DHT22;730;48.870;12.542;2023-09-30T07:35:13;17.80;1.00
1476;DHT22;730;48.870;12.542;2023-09-30T07:37:42;17.80;1.00
1476;DHT22;730;48.870;12.542;2023-09-30T07:40:10;17.90;1.00
1476;DHT22;730;48.870;12.542;2023-09-30T07:42:39;18.00;1.00
1476;DHT22;730;48.870;12.542;2023-09-30T07:45:05;18.00;1.00
1476;DHT22;730;48.870;12.542;2023-09-30T07:47:31;18.10;1.00
1476;DHT22;730;48.870;12.542;2023-09-30T07:50:00;18.20;1.00
1476;DHT22;730;48.870;12.542;2023-09-30T07:52:30;18.40;1.00
1476;DHT22;730;48.870;12.542;2023-09-30T07:54:56;18.40;1.00
1476;DHT22;730;48.870;12.542;2023-09-30T07:57:22;18.60;1.00
1476;DHT22;730;48.870;12.542;2023-09-30T07:59:48;18.70;1.00
1476;DHT22;730;48.870;12.542;2023-09-30T08:02:14;18.80;1.00
1476;DHT22;730;48.870;12.542;2023-09-30T08:04:40;18.90;1.00
1476;DHT22;730;48.870;12.542;2023-09-30T08:07:06;19.00;1.00
1476;DHT22;730;48.870;12.542;2023-09-30T08:09:32;19.20;1.00
1476;DHT22;730;48.870;12.542;2023-09-30T08:11:58;19.40;1.00
1476;DHT22;730;48.870;12.542;2023-09-30T08:14:24;19.70;1.00
1476;DHT22;730;48.870;12.542;2023-09-30T08:16:51;19.90;1.00
1476;DHT22;730;48.870;12.542;2023-09-30T08:19:17;20.00;1.00
1476;DHT22;730;48.870;12.542;2023-09-30T08:21:44;20.10;1.00
1476;DHT22;730;48.870;12.542;2023-09-30T08:24:10;20.30;1.00
1476;DHT22;730;48.870;12.542;2023-09-30T08:26:37;20.40;1.00
1476;DHT22;730;48.870;12.542;2023-09-30T08:29:03;20.40;1.00
1476;DHT22;730;48.870;12.542;2023-09-30T08:31:30;20.50;1.00
1476;DHT22;730;48.870;12.542;2023-09-30T08:33:56;20.50;1.00
1476;DHT22;730;48.870;12.542;2023-09-30T08:36:22;20.60;1.00
1476;DHT22;730;48.870;12.542;2023-09-30T08:38:48;20.60;1.00
1476;DHT22;730;48.870;12.542;2023-09-30T08:41:33;20.60;1.00
1476;DHT22;730;48.870;12.542;2023-09-30T08:44:00;20.50;1.00
1476;DHT22;730;48.870;12.542;2023-09-30T08:46:31;20.50;1.00
1476;DHT22;730;48.870;12.542;2023-09-30T08:49:02;20.50;1.00
1476;DHT22;730;48.870;12.542;2023-09-30T08:51:29;20.50;1.00
1476;DHT22;730;48.870;12.542;2023-09-30T08:53:57;20.50;1.00
1476;DHT22;730;48.870;12.542;2023-09-30T08:56:26;20.50;1.00
1476;DHT22;730;48.870;12.542;2023-09-30T08:58:55;20.50;1.00
1476;DHT22;730;48.870;12.542;2023-09-30T09:01:22;20.40;1.00
1476;DHT22;730;48.870;12.542;2023-09-30T09:03:49;20.30;1.00
1476;DHT22;730;48.870;12.542;2023-09-30T09:06:20;20.10;1.00
1476;DHT22;730;48.870;12.542;2023-09-30T09:08:47;20.20;1.00
1476;DHT22;730;48.870;12.542;2023-09-30T09:11:13;20.10;1.00
1476;DHT22;730;48.870;12.542;2023-09-30T09:13:53;20.10;1.00
1476;DHT22;730;48.870;12.542;2023-09-30T09:16:23;20.00;1.00
1476;DHT22;730;48.870;12.542;2023-09-30T09:18:49;20.00;1.00
1476;DHT22;730;48.870;12.542;2023-09-30T09:21:20;20.00;1.00
1476;DHT22;730;48.870;12.542;2023-09-30T09:23:50;20.00;1.00
1476;DHT22;730;48.870;12.542;2023-09-30T09:26:30;20.00;1.00
1476;DHT22;730;48.870;12.542;2023-09-30T09:29:01;20.00;1.00
1476;DHT22;730;48.870;12.542;2023-09-30T09:31:35;20.00;1.00
1476;DHT22;730;48.870;12.542;2023-09-30T09:34:13;20.00;1.00
1476;DHT22;730;48.870;12.542;2023-09-30T09:36:42;20.00;1.00
1476;DHT22;730;48.870;12.542;2023-09-30T09:39:08;20.10;1.00
1476;DHT22;730;48.870;12.542;2023-09-30T09:41:49;20.20;1.00
1476;DHT22;730;48.870;12.542;2023-09-30T09:44:18;20.30;1.00
1476;DHT22;730;48.870;12.542;2023-09-30T09:46:47;20.40;1.00
1476;DHT22;730;48.870;12.542;2023-09-30T09:49:18;20.40;1.00
1476;DHT22;730;48.870;12.542;2023-09-30T09:51:46;20.50;1.00
1476;DHT22;730;48.870;12.542;2023-09-30T09:54:13;20.70;1.00
1476;DHT22;730;48.870;12.542;2023-09-30T09:56:42;20.70;1.00
1476;DHT22;730;48.870;12.542;2023-09-30T09:59:11;20.70;1.00
1476;DHT22;730;48.870;12.542;2023-09-30T10:01:38;20.70;1.00
1476;DHT22;730;48.870;12.542;2023-09-30T10:04:06;20.70;1.00
1476;DHT22;730;48.870;12.542;2023-09-30T10:06:34;20.70;1.00
1476;DHT22;730;48.870;12.542;2023-09-30T10:09:09;20.70;1.00
1476;DHT22;730;48.870;12.542;2023-09-30T10:11:38;20.70;1.00
1476;DHT22;730;48.870;12.542;2023-09-30T10:14:04;20.80;1.00
1476;DHT22;730;48.870;12.542;2023-09-30T10:16:47;20.70;1.00
1476;DHT22;730;48.870;12.542;2023-09-30T10:19:15;20.80;1.00
1476;DHT22;730;48.870;12.542;2023-09-30T10:24:56;21.00;1.00
1476;DHT22;730;48.870;12.542;2023-09-30T10:29:53;21.20;1.00
1476;DHT22;730;48.870;12.542;2023-09-30T10:32:20;21.30;1.00
1476;DHT22;730;48.870;12.542;2023-09-30T10:34:49;21.40;1.00
1476;DHT22;730;48.870;12.542;2023-09-30T10:37:23;21.40;1.00
1476;DHT22;730;48.870;12.542;2023-09-30T10:39:59;21.40;1.00
1476;DHT22;730;48.870;12.542;2023-09-30T10:42:47;21.30;1.00
1476;DHT22;730;48.870;12.542;2023-09-30T10:50:51;21.30;1.00
1476;DHT22;730;48.870;12.542;2023-09-30T10:53:18;21.40;1.00
1476;DHT22;730;48.870;12.542;2023-09-30T10:55:45;21.40;1.00
1476;DHT22;730;48.870;12.542;2023-09-30T10:58:13;21.60;1.00
1476;DHT22;730;48.870;12.542;2023-09-30T11:00:39;21.60;1.00
1476;DHT22;730;48.870;12.542;2023-09-30T11:03:06;21.70;1.00
1476;DHT22;730;48.870;12.542;2023-09-30T11:05:33;21.80;1.00
1476;DHT22;730;48.870;12.542;2023-09-30T11:08:02;21.90;1.00
1476;DHT22;730;48.870;12.542;2023-09-30T11:10:29;22.10;1.00
1476;DHT22;730;48.870;12.542;2023-09-30T11:12:58;22.10;1.00
1476;DHT22;730;48.870;12.542;2023-09-30T11:15:24;22.30;1.00
1476;DHT22;730;48.870;12.542;2023-09-30T11:17:54;22.30;1.00
1476;DHT22;730;48.870;12.542;2023-09-30T11:20:38;22.40;1.00
1476;DHT22;730;48.870;12.542;2023-09-30T11:23:04;22.40;1.00
1476;DHT22;730;48.870;12.542;2023-09-30T11:25:35;22.30;1.00
1476;DHT22;730;48.870;12.542;2023-09-30T11:28:17;22.30;1.00
1476;DHT22;730;48.870;12.542;2023-09-30T11:31:01;22.10;1.00
1476;DHT22;730;48.870;12.542;2023-09-30T11:33:32;22.00;1.00
1476;DHT22;730;48.870;12.542;2023-09-30T11:36:03;22.00;1.00
1476;DHT22;730;48.870;12.542;2023-09-30T11:38:30;21.90;1.00
1476;DHT22;730;48.870;12.542;2023-09-30T11:41:03;21.90;1.00
1476;DHT22;730;48.870;12.542;2023-09-30T11:43:31;21.80;1.00
1476;DHT22;730;48.870;12.542;2023-09-30T11:46:09;21.90;1.00
1476;DHT22;730;48.870;12.542;2023-09-30T11:48:37;21.90;1.00
1476;DHT22;730;48.870;12.542;2023-09-30T11:51:04;21.90;1.00
1476;DHT22;730;48.870;12.542;2023-09-30T11:53:31;22.00;1.00
1476;DHT22;730;48.870;12.542;2023-09-30T11:56:00;22.10;1.00
1476;DHT22;730;48.870;12.542;2023-09-30T11:58:29;22.20;1.00
1476;DHT22;730;48.870;12.542;2023-09-30T12:01:00;22.30;1.00
1476;DHT22;730;48.870;12.542;2023-09-30T12:03:27;22.30;1.00
1476;DHT22;730;48.870;12.542;2023-09-30T12:05:53;22.50;1.00
1476;DHT22;730;48.870;12.542;2023-09-30T12:08:24;22.70;1.00
1476;DHT22;730;48.870;12.542;2023-09-30T12:10:50;22.80;1.00
1476;DHT22;730;48.870;12.542;2023-09-30T12:13:16;23.10;1.00
1476;DHT22;730;48.870;12.542;2023-09-30T12:15:43;23.40;1.00
1476;DHT22;730;48.870;12.542;2023-09-30T12:18:10;23.70;1.00
1476;DHT22;730;48.870;12.542;2023-09-30T12:20:39;24.00;1.00
1476;DHT22;730;48.870;12.542;2023-09-30T12:23:07;24.20;1.00
1476;DHT22;730;48.870;12.542;2023-09-30T12:25:35;24.40;1.00
1476;DHT22;730;48.870;12.542;2023-09-30T12:28:03;24.40;1.00
1476;DHT22;730;48.870;12.542;2023-09-30T12:30:29;24.50;1.00
1476;DHT22;730;48.870;12.542;2023-09-30T12:32:58;24.50;1.00
1476;DHT22;730;48.870;12.542;2023-09-30T12:35:24;24.60;1.00
1476;DHT22;730;48.870;12.542;2023-09-30T12:37:50;24.60;1.00
1476;DHT22;730;48.870;12.542;2023-09-30T12:40:16;24.60;1.00
1476;DHT22;730;48.870;12.542;2023-09-30T12:42:45;24.80;1.00
1476;DHT22;730;48.870;12.542;2023-09-30T12:45:13;24.80;1.00
1476;DHT22;730;48.870;12.542;2023-09-30T12:47:39;25.00;1.00
1476;DHT22;730;48.870;12.542;2023-09-30T12:50:06;25.00;1.00
1476;DHT22;730;48.870;12.542;2023-09-30T12:52:35;25.10;1.00
1476;DHT22;730;48.870;12.542;2023-09-30T12:55:01;25.10;1.00
1476;DHT22;730;48.870;12.542;2023-09-30T12:57:28;25.10;1.00
1476;DHT22;730;48.870;12.542;2023-09-30T12:59:54;25.10;1.00
1476;DHT22;730;48.870;12.542;2023-09-30T13:02:20;24.90;1.00
1476;DHT22;730;48.870;12.542;2023-09-30T13:04:46;24.80;1.00
1476;DHT22;730;48.870;12.542;2023-09-30T13:07:13;24.90;1.00
1476;DHT22;730;48.870;12.542;2023-09-30T13:09:39;24.90;1.00
1476;DHT22;730;48.870;12.542;2023-09-30T13:12:06;25.00;1.00
1476;DHT22;730;48.870;12.542;2023-09-30T13:14:32;25.00;1.00
1476;DHT22;730;48.870;12.542;2023-09-30T13:16:58;25.10;1.00
1476;DHT22;730;48.870;12.542;2023-09-30T13:19:24;25.30;1.00
1476;DHT22;730;48.870;12.542;2023-09-30T13:21:51;25.50;1.00
1476;DHT22;730;48.870;12.542;2023-09-30T13:24:21;25.70;1.00
1476;DHT22;730;48.870;12.542;2023-09-30T13:26:48;25.90;1.00
1476;DHT22;730;48.870;12.542;2023-09-30T13:29:15;26.10;1.00
1476;DHT22;730;48.870;12.542;2023-09-30T13:31:42;26.30;1.00
1476;DHT22;730;48.870;12.542;2023-09-30T13:34:09;26.50;1.00
1476;DHT22;730;48.870;12.542;2023-09-30T13:36:35;26.70;1.00
1476;DHT22;730;48.870;12.542;2023-09-30T13:39:01;26.90;1.00
1476;DHT22;730;48.870;12.542;2023-09-30T13:41:30;27.10;1.00
1476;DHT22;730;48.870;12.542;2023-09-30T13:43:56;27.30;1.00
1476;DHT22;730;48.870;12.542;2023-09-30T13:46:22;27.50;1.00
1476;DHT22;730;48.870;12.542;2023-09-30T13:48:50;27.60;1.00
1476;DHT22;730;48.870;12.542;2023-09-30T13:51:18;27.80;1.00
1476;DHT22;730;48.870;12.542;2023-09-30T13:53:44;27.90;1.00
1476;DHT22;730;48.870;12.542;2023-09-30T13:56:10;27.80;1.00
1476;DHT22;730;48.870;12.542;2023-09-30T13:58:36;27.80;1.00
1476;DHT22;730;48.870;12.542;2023-09-30T14:01:03;27.70;1.00
1476;DHT22;730;48.870;12.542;2023-09-30T14:03:29;27.60;1.00
1476;DHT22;730;48.870;12.542;2023-09-30T14:05:55;27.50;1.00
1476;DHT22;730;48.870;12.542;2023-09-30T14:08:25;27.10;1.00
1476;DHT22;730;48.870;12.542;2023-09-30T14:10:51;26.80;1.00
1476;DHT22;730;48.870;12.542;2023-09-30T14:13:18;26.70;1.00
1476;DHT22;730;48.870;12.542;2023-09-30T14:15:45;26.60;1.00
1476;DHT22;730;48.870;12.542;2023-09-30T14:18:12;26.40;1.00
1476;DHT22;730;48.870;12.542;2023-09-30T14:20:39;26.30;1.00
1476;DHT22;730;48.870;12.542;2023-09-30T14:23:05;26.30;1.00
1476;DHT22;730;48.870;12.542;2023-09-30T14:25:31;26.20;1.00
1476;DHT22;730;48.870;12.542;2023-09-30T14:27:57;26.00;1.00
1476;DHT22;730;48.870;12.542;2023-09-30T14:30:25;25.90;1.00
1476;DHT22;730;48.870;12.542;2023-09-30T14:32:52;25.80;1.00
1476;DHT22;730;48.870;12.542;2023-09-30T14:35:26;25.70;1.00
1476;DHT22;730;48.870;12.542;2023-09-30T14:37:52;25.60;1.00
1476;DHT22;730;48.870;12.542;2023-09-30T14:40:20;25.40;1.00
1476;DHT22;730;48.870;12.542;2023-09-30T14:42:46;25.30;1.00
1476;DHT22;730;48.870;12.542;2023-09-30T14:45:12;25.20;1.00
1476;DHT22;730;48.870;12.542;2023-09-30T14:47:38;25.00;1.00
1476;DHT22;730;48.870;12.542;2023-09-30T14:50:08;24.90;1.00
1476;DHT22;730;48.870;12.542;2023-09-30T14:52:34;24.80;1.00
1476;DHT22;730;48.870;12.542;2023-09-30T14:55:00;24.70;1.00
1476;DHT22;730;48.870;12.542;2023-09-30T14:57:29;24.60;1.00
1476;DHT22;730;48.870;12.542;2023-09-30T14:59:57;24.50;1.00
1476;DHT22;730;48.870;12.542;2023-09-30T15:02:25;24.40;1.00
1476;DHT22;730;48.870;12.542;2023-09-30T15:04:52;24.40;1.00
1476;DHT22;730;48.870;12.542;2023-09-30T15:07:19;24.40;1.00
1476;DHT22;730;48.870;12.542;2023-09-30T15:09:45;24.30;1.00
1476;DHT22;730;48.870;12.542;2023-09-30T15:12:11;24.30;1.00
1476;DHT22;730;48.870;12.542;2023-09-30T15:14:37;24.20;1.00
1476;DHT22;730;48.870;12.542;2023-09-30T15:17:03;24.20;1.00
1476;DHT22;730;48.870;12.542;2023-09-30T15:19:30;24.00;1.00
1476;DHT22;730;48.870;12.542;2023-09-30T15:21:57;24.00;1.00
1476;DHT22;730;48.870;12.542;2023-09-30T15:24:24;23.90;1.00
1476;DHT22;730;48.870;12.542;2023-09-30T15:26:50;23.90;1.00
1476;DHT22;730;48.870;12.542;2023-09-30T15:29:16;23.80;1.00
1476;DHT22;730;48.870;12.542;2023-09-30T15:31:42;23.80;1.00
1476;DHT22;730;48.870;12.542;2023-09-30T15:34:08;23.60;1.00
1476;DHT22;730;48.870;12.542;2023-09-30T15:36:36;23.60;1.00
1476;DHT22;730;48.870;12.542;2023-09-30T15:39:02;23.50;1.00
1476;DHT22;730;48.870;12.542;2023-09-30T15:41:28;23.40;1.00
1476;DHT22;730;48.870;12.542;2023-09-30T15:43:58;23.30;1.00
1476;DHT22;730;48.870;12.542;2023-09-30T15:46:25;23.20;1.00
1476;DHT22;730;48.870;12.542;2023-09-30T15:48:51;23.20;1.00
1476;DHT22;730;48.870;12.542;2023-09-30T15:51:17;23.30;1.00
1476;DHT22;730;48.870;12.542;2023-09-30T15:53:43;23.30;1.00
1476;DHT22;730;48.870;12.542;2023-09-30T15:56:11;23.20;1.00
1476;DHT22;730;48.870;12.542;2023-09-30T15:58:37;23.20;1.00
1476;DHT22;730;48.870;12.542;2023-09-30T16:01:03;23.10;1.00
1476;DHT22;730;48.870;12.542;2023-09-30T16:03:29;23.00;1.00
1476;DHT22;730;48.870;12.542;2023-09-30T16:05:55;22.90;1.00
1476;DHT22;730;48.870;12.542;2023-09-30T16:08:21;22.80;1.00
1476;DHT22;730;48.870;12.542;2023-09-30T16:10:47;22.70;1.00
1476;DHT22;730;48.870;12.542;2023-09-30T16:13:13;22.60;1.00
1476;DHT22;730;48.870;12.542;2023-09-30T16:15:41;22.50;1.00
1476;DHT22;730;48.870;12.542;2023-09-30T16:18:08;22.30;1.00
1476;DHT22;730;48.870;12.542;2023-09-30T16:20:34;22.20;1.00
1476;DHT22;730;48.870;12.542;2023-09-30T16:23:00;22.00;1.00
1476;DHT22;730;48.870;12.542;2023-09-30T16:25:26;21.90;1.00
1476;DHT22;730;48.870;12.542;2023-09-30T16:27:52;21.80;1.00
1476;DHT22;730;48.870;12.542;2023-09-30T16:30:19;21.60;1.00